Time;durP1;ratioP1;P1;durP2;ratioP2;P2;SDS_P1;SDS_P2;PMS_P1;PMS_P2;Temp;Humidity;BMP_temperature;BMP_pressure;BME280_temperature;BME280_humidity;BME280_pressure;Samples;Min_cycle;Max_cycle;Signal;HPM_P1;HPM_P2
2023/10/08 00:01:55;;;;;;;7.43;3.80;;;;;;;13.55;96.68;101358.53;4878734;29;20147;-66
2023/10/08 00:05:00;;;;;;;5.32;2.85;;;;;;;13.57;96.59;101364.56;4879388;29;20049;-65
2023/10/08 00:08:04;;;;;;;9.90;4.43;;;;;;;13.58;97.07;101368.03;4879363;29;20092;-65
2023/10/08 00:11:10;;;;;;;10.45;3.60;;;;;;;13.63;97.18;101364.25;4879302;29;20059;-66
2023/10/08 00:14:21;;;;;;;14.55;3.28;;;;;;;13.62;97.18;101359.91;4879182;29;20052;-65
2023/10/08 00:17:25;;;;;;;6.95;3.40;;;;;;;13.68;97.37;101369.25;4879226;29;20047;-65
2023/10/08 00:20:35;;;;;;;6.15;3.53;;;;;;;13.71;97.26;101354.19;4879157;29;20048;-66
2023/10/08 00:27:00;;;;;;;6.70;3.63;;;;;;;13.67;97.42;101352.66;4879058;29;20055;-66
2023/10/08 00:30:13;;;;;;;7.40;3.13;;;;;;;13.66;98.37;101340.44;4867447;29;20516;-66
2023/10/08 00:33:16;;;;;;;9.47;3.57;;;;;;;13.80;98.58;101331.81;4879162;29;20521;-65
2023/10/08 00:36:20;;;;;;;9.63;3.78;;;;;;;13.84;98.60;101327.25;4878948;29;20268;-66
2023/10/08 00:39:24;;;;;;;8.88;3.83;;;;;;;14.01;98.83;101321.06;4867636;29;20055;-66
2023/10/08 00:42:28;;;;;;;6.75;3.65;;;;;;;14.01;100.00;101337.72;4878000;29;20149;-66
2023/10/08 00:45:31;;;;;;;8.68;4.05;;;;;;;14.07;100.00;101344.41;4879017;29;20044;-66
2023/10/08 00:48:36;;;;;;;10.57;3.90;;;;;;;14.19;100.00;101335.88;4878838;29;20087;-65
2023/10/08 00:51:42;;;;;;;8.68;3.90;;;;;;;14.29;100.00;101344.94;4867111;29;20056;-66
2023/10/08 00:57:57;;;;;;;9.57;3.70;;;;;;;14.47;100.00;101321.19;4878965;29;20173;-65
2023/10/08 01:01:01;;;;;;;9.45;4.07;;;;;;;14.45;100.00;101326.53;4878463;29;20086;-65
2023/10/08 01:04:11;;;;;;;11.52;4.28;;;;;;;14.55;100.00;101333.03;4878767;29;20048;-66
2023/10/08 01:07:18;;;;;;;7.20;4.13;;;;;;;14.54;100.00;101326.06;4878516;29;20137;-65
2023/10/08 01:10:24;;;;;;;8.50;3.42;;;;;;;14.55;100.00;101330.41;4878843;29;20047;-65
2023/10/08 01:13:35;;;;;;;14.63;3.90;;;;;;;14.45;100.00;101333.59;4862825;29;20591;-66
2023/10/08 01:16:41;;;;;;;9.68;4.00;;;;;;;14.41;100.00;101332.91;4864043;29;20048;-65
2023/10/08 01:19:50;;;;;;;8.55;3.97;;;;;;;14.37;100.00;101329.59;4864088;29;20056;-66
2023/10/08 01:22:53;;;;;;;8.90;4.18;;;;;;;14.37;100.00;101344.53;4863667;29;20049;-66
2023/10/08 01:26:31;;;;;;;10.50;3.97;;;;;;;14.38;100.00;101336.56;4863674;29;20490;-66
2023/10/08 01:29:28;;;;;;;13.00;3.75;;;;;;;14.41;100.00;101339.00;4862676;29;20051;-66
2023/10/08 01:32:34;;;;;;;9.75;4.55;;;;;;;14.31;100.00;101345.72;4863521;29;20524;-65
2023/10/08 01:35:38;;;;;;;7.05;3.25;;;;;;;14.34;100.00;101358.72;4863449;29;20133;-66
2023/10/08 01:38:42;;;;;;;8.60;3.95;;;;;;;14.33;100.00;101349.13;4863603;29;20043;-66
2023/10/08 01:41:48;;;;;;;11.65;4.47;;;;;;;14.28;100.00;101355.56;4863483;29;20053;-66
2023/10/08 01:44:54;;;;;;;10.07;3.50;;;;;;;14.19;100.00;101360.38;4862510;29;20049;-66
2023/10/08 01:47:57;;;;;;;9.70;4.10;;;;;;;14.14;100.00;101359.81;4863228;29;20132;-65
2023/10/08 01:51:04;;;;;;;6.50;3.72;;;;;;;14.07;100.00;101357.56;4863445;29;20509;-66
2023/10/08 01:54:10;;;;;;;7.22;3.63;;;;;;;13.99;100.00;101358.00;4863183;29;20117;-66
2023/10/08 01:57:14;;;;;;;9.45;3.75;;;;;;;14.03;100.00;101356.88;4862293;29;20076;-66
2023/10/08 02:00:19;;;;;;;7.85;3.90;;;;;;;13.97;100.00;101357.22;4862516;29;20055;-66
2023/10/08 02:03:24;;;;;;;7.43;4.05;;;;;;;14.02;100.00;101354.34;4863195;29;20052;-66
2023/10/08 02:06:27;;;;;;;8.05;4.00;;;;;;;13.98;100.00;101343.16;4862090;29;20049;-66
2023/10/08 02:09:33;;;;;;;12.48;5.00;;;;;;;13.89;100.00;101354.16;4862018;29;20045;-66
2023/10/08 02:12:40;;;;;;;13.35;4.35;;;;;;;13.77;100.00;101353.00;4876100;29;20104;-65
2023/10/08 02:15:53;;;;;;;12.80;4.32;;;;;;;13.83;100.00;101339.53;4881319;29;20109;-66
2023/10/08 02:18:56;;;;;;;6.93;3.93;;;;;;;13.72;100.00;101345.38;4881434;29;20056;-66
2023/10/08 02:22:00;;;;;;;7.47;3.47;;;;;;;13.63;100.00;101332.72;4869743;29;20277;-66
2023/10/08 02:25:03;;;;;;;11.93;4.13;;;;;;;13.57;100.00;101327.78;4880425;29;20104;-66
2023/10/08 02:28:12;;;;;;;9.23;4.38;;;;;;;13.60;100.00;101327.63;4881060;29;20100;-65
2023/10/08 02:31:16;;;;;;;10.10;3.90;;;;;;;13.70;100.00;101330.63;4881086;29;20483;-65
2023/10/08 02:34:21;;;;;;;10.50;4.45;;;;;;;13.70;100.00;101326.19;4881005;29;20520;-65
2023/10/08 02:37:25;;;;;;;18.25;5.00;;;;;;;13.63;100.00;101339.75;4880985;29;20113;-65
2023/10/08 02:40:30;;;;;;;13.57;4.30;;;;;;;13.70;100.00;101334.09;4880966;29;20100;-65
2023/10/08 02:43:34;;;;;;;9.57;4.22;;;;;;;13.78;100.00;101340.72;4880893;29;20048;-66
2023/10/08 02:46:40;;;;;;;15.85;4.85;;;;;;;13.83;100.00;101350.06;4869460;29;20121;-66
2023/10/08 02:49:44;;;;;;;11.50;3.92;;;;;;;13.91;100.00;101336.50;4880759;29;20052;-66
2023/10/08 02:52:50;;;;;;;8.38;4.07;;;;;;;13.93;100.00;101347.78;4880914;29;20056;-66
2023/10/08 02:55:54;;;;;;;14.10;5.10;;;;;;;13.87;100.00;101342.84;4869056;29;20044;-65
2023/10/08 02:58:58;;;;;;;11.30;4.30;;;;;;;13.85;100.00;101357.88;4869106;29;20414;-66
2023/10/08 03:02:02;;;;;;;9.25;4.18;;;;;;;13.95;100.00;101354.69;4868877;29;20109;-66
2023/10/08 03:05:08;;;;;;;8.07;4.10;;;;;;;14.02;100.00;101360.47;4880575;29;20043;-66
2023/10/08 03:08:19;;;;;;;13.30;3.80;;;;;;;13.95;100.00;101359.94;4868925;29;20455;-66
2023/10/08 03:11:25;;;;;;;24.40;4.20;;;;;;;13.91;99.42;101370.69;4868626;29;20067;-66
2023/10/08 03:14:41;;;;;;;8.70;3.08;;;;;;;13.82;98.41;101368.56;4868709;29;20422;-65
2023/10/08 03:17:51;;;;;;;7.80;3.10;;;;;;;13.71;97.91;101377.81;4868683;29;20418;-66
2023/10/08 03:20:55;;;;;;;6.68;2.97;;;;;;;13.51;98.23;101380.63;4880495;29;20417;-66
2023/10/08 03:23:59;;;;;;;10.43;2.67;;;;;;;13.46;98.90;101382.63;4868614;29;20043;-65
2023/10/08 03:27:20;;;;;;;6.30;2.90;;;;;;;13.34;98.59;101378.03;4880160;29;20052;-66
2023/10/08 03:30:26;;;;;;;10.30;3.30;;;;;;;13.24;99.25;101389.00;4880082;29;20565;-65
2023/10/08 03:33:37;;;;;;;6.25;3.10;;;;;;;13.11;100.00;101385.22;4868568;29;20120;-65
2023/10/08 03:36:46;;;;;;;9.43;4.05;;;;;;;13.17;99.74;101392.78;4868541;29;20048;-66
2023/10/08 03:40:24;;;;;;;9.52;3.13;;;;;;;13.12;99.61;101391.34;4880142;29;20047;-66
2023/10/08 03:43:34;;;;;;;9.27;4.20;;;;;;;13.14;99.65;101382.44;4879829;29;20448;-65
2023/10/08 03:46:46;;;;;;;7.30;4.22;;;;;;;13.21;99.55;101383.84;4879724;29;20105;-66
2023/10/08 03:49:51;;;;;;;12.15;3.25;;;;;;;13.11;99.91;101390.47;4879995;29;20454;-66
2023/10/08 03:52:55;;;;;;;8.43;3.20;;;;;;;13.07;100.00;101383.66;4879608;29;20466;-66
2023/10/08 03:56:00;;;;;;;6.43;3.38;;;;;;;13.10;100.00;101374.81;4879560;29;20105;-65
2023/10/08 03:59:12;;;;;;;7.75;3.55;;;;;;;13.23;100.00;101373.25;4879651;29;20649;-65
2023/10/08 04:02:32;;;;;;;5.28;3.72;;;;;;;13.23;100.00;101371.47;4879427;29;20056;-66
2023/10/08 04:05:56;;;;;;;8.60;3.08;;;;;;;13.32;100.00;101366.75;4879752;29;20048;-66
2023/10/08 04:09:16;;;;;;;7.55;3.92;;;;;;;13.37;99.74;101373.47;4879181;29;20069;-65
2023/10/08 04:12:19;;;;;;;7.32;3.45;;;;;;;13.39;99.36;101384.72;4879122;29;20063;-66
2023/10/08 04:15:23;;;;;;;11.95;3.65;;;;;;;13.39;99.40;101381.25;4879203;29;20077;-66
2023/10/08 04:18:26;;;;;;;6.30;3.70;;;;;;;13.21;100.00;101378.59;4879233;29;20405;-66
2023/10/08 04:21:33;;;;;;;8.95;3.45;;;;;;;13.30;100.00;101392.22;4879198;29;20055;-66
2023/10/08 04:24:38;;;;;;;6.85;3.90;;;;;;;13.29;100.00;101396.63;4879202;29;20577;-66
2023/10/08 04:27:42;;;;;;;9.35;3.97;;;;;;;13.18;100.00;101391.03;4879502;29;20056;-65
2023/10/08 04:30:52;;;;;;;7.95;3.33;;;;;;;13.23;100.00;101392.50;4879322;29;20072;-66
2023/10/08 04:34:00;;;;;;;7.90;3.40;;;;;;;13.33;100.00;101400.78;4879281;29;20048;-66
2023/10/08 04:37:12;;;;;;;6.45;3.85;;;;;;;13.32;100.00;101400.88;4878905;29;20120;-65
2023/10/08 04:40:16;;;;;;;9.95;4.13;;;;;;;13.30;100.00;101402.72;4878923;29;20194;-66
2023/10/08 04:43:30;;;;;;;6.95;3.45;;;;;;;13.29;100.00;101406.28;4878909;29;20061;-66
2023/10/08 04:46:46;;;;;;;5.75;3.35;;;;;;;13.30;100.00;101402.72;4878504;29;20047;-66
2023/10/08 04:49:49;;;;;;;8.50;3.80;;;;;;;13.20;100.00;101395.28;4878797;29;20517;-66
2023/10/08 04:52:58;;;;;;;5.20;3.25;;;;;;;13.17;100.00;101392.78;4878691;29;20044;-66
2023/10/08 04:56:13;;;;;;;8.13;3.75;;;;;;;13.19;100.00;101390.09;4878667;29;20060;-66
2023/10/08 04:59:22;;;;;;;7.32;3.47;;;;;;;13.12;100.00;101388.72;4878630;29;20087;-66
2023/10/08 05:02:48;;;;;;;8.75;3.65;;;;;;;13.16;100.00;101387.63;4878643;29;20153;-65
2023/10/08 05:06:16;;;;;;;10.90;4.10;;;;;;;13.21;100.00;101391.75;4878716;29;20048;-66
2023/10/08 05:15:47;;;;;;;9.07;3.60;;;;;;;13.24;100.00;101383.75;4878518;29;20489;-66
2023/10/08 05:19:14;;;;;;;9.77;3.80;;;;;;;13.23;100.00;101383.75;4878467;29;20075;-65
2023/10/08 05:22:18;;;;;;;10.48;5.28;;;;;;;13.20;100.00;101370.78;4878627;29;20104;-65
2023/10/08 05:28:25;;;;;;;15.10;6.53;;;;;;;13.21;100.00;101389.13;4878501;29;20128;-65
2023/10/08 05:35:30;;;;;;;10.35;5.18;;;;;;;13.15;100.00;101389.41;4878504;29;20410;-65
2023/10/08 05:41:51;;;;;;;11.63;4.75;;;;;;;13.16;100.00;101406.84;4878272;29;20052;-66
2023/10/08 05:48:15;;;;;;;6.97;3.78;;;;;;;12.98;100.00;101444.50;4877093;29;20144;-65
2023/10/08 05:51:33;;;;;;;9.38;3.95;;;;;;;12.95;100.00;101444.63;4876917;29;20101;-66
2023/10/08 05:54:47;;;;;;;9.75;4.18;;;;;;;12.94;100.00;101432.44;4876949;29;20068;-65
2023/10/08 05:58:13;;;;;;;8.45;3.38;;;;;;;12.90;100.00;101447.50;4876947;29;20176;-66
2023/10/08 06:01:37;;;;;;;6.05;3.90;;;;;;;12.92;100.00;101456.16;4880503;29;20056;-65
2023/10/08 06:05:23;;;;;;;6.53;3.90;;;;;;;12.95;100.00;101466.50;4880323;29;20471;-67
2023/10/08 06:08:12;;;;;;;6.28;3.13;;;;;;;12.95;100.00;101456.00;4880226;29;20068;-65
2023/10/08 06:11:30;;;;;;;9.65;4.10;;;;;;;12.98;100.00;101452.38;4880046;29;20135;-66
2023/10/08 06:14:52;;;;;;;9.52;4.75;;;;;;;13.04;100.00;101444.22;4880202;29;20084;-66
2023/10/08 06:18:04;;;;;;;10.13;3.45;;;;;;;13.08;100.00;101448.41;4880202;29;20181;-66
2023/10/08 06:21:11;;;;;;;6.20;3.45;;;;;;;13.07;100.00;101440.59;4880200;29;20055;-66
2023/10/08 06:24:16;;;;;;;8.88;3.70;;;;;;;13.04;100.00;101452.09;4879997;29;20609;-66
2023/10/08 06:27:20;;;;;;;6.80;3.97;;;;;;;13.12;100.00;101449.97;4880181;29;20105;-66
2023/10/08 06:30:29;;;;;;;8.85;4.18;;;;;;;13.09;100.00;101454.50;4880097;29;20052;-66
2023/10/08 06:33:37;;;;;;;6.80;3.13;;;;;;;13.16;100.00;101462.00;4880081;29;20120;-66
2023/10/08 06:36:40;;;;;;;7.47;3.63;;;;;;;13.19;100.00;101463.63;4880040;29;20101;-66
2023/10/08 06:39:49;;;;;;;7.97;3.60;;;;;;;13.24;100.00;101453.75;4880149;29;20056;-66
2023/10/08 06:42:56;;;;;;;11.52;6.53;;;;;;;13.15;100.00;101462.94;4880155;29;20516;-67
2023/10/08 06:46:00;;;;;;;10.27;5.50;;;;;;;13.28;100.00;101476.38;4879909;29;20083;-67
2023/10/08 06:49:11;;;;;;;8.45;4.43;;;;;;;13.33;100.00;101481.38;4879992;29;20051;-67
2023/10/08 06:52:15;;;;;;;10.55;4.40;;;;;;;13.17;100.00;101495.19;4880262;29;20136;-67
2023/10/08 06:55:24;;;;;;;9.27;4.30;;;;;;;13.31;100.00;101501.63;4879709;29;20063;-66
2023/10/08 06:58:32;;;;;;;7.72;4.15;;;;;;;13.37;100.00;101515.31;4868136;29;20161;-67
2023/10/08 07:01:45;;;;;;;;;;;;;;;13.45;100.00;101509.69;4880033;29;20052;-68
2023/10/08 07:04:50;;;;;;;8.38;4.32;;;;;;;13.49;100.00;101511.22;4879378;29;19964;-68
2023/10/08 07:07:55;;;;;;;9.23;3.95;;;;;;;13.48;100.00;101512.16;4879644;29;20582;-69
2023/10/08 07:11:06;;;;;;;6.63;3.80;;;;;;;13.48;100.00;101522.66;4878662;29;20104;-69
2023/10/08 07:14:10;;;;;;;6.88;3.42;;;;;;;13.55;100.00;101524.06;4879225;29;20059;-70
2023/10/08 07:17:19;;;;;;;4.75;3.10;;;;;;;13.59;100.00;101525.66;4879611;29;20150;-69
2023/10/08 07:20:23;;;;;;;9.40;4.07;;;;;;;13.51;100.00;101519.06;4878483;29;20136;-69
2023/10/08 07:23:29;;;;;;;14.18;4.55;;;;;;;13.54;100.00;101542.56;4879235;29;20085;-69
2023/10/08 07:26:46;;;;;;;9.68;5.10;;;;;;;13.54;100.00;101540.78;4879649;29;20064;-71
2023/10/08 07:29:50;;;;;;;7.57;5.53;;;;;;;13.67;100.00;101522.63;4879051;29;20105;-69
2023/10/08 07:32:54;;;;;;;9.15;6.45;;;;;;;13.82;100.00;101505.25;4878883;29;20044;-68
2023/10/08 07:35:58;;;;;;;11.77;8.18;;;;;;;13.80;100.00;101505.31;4878056;29;20095;-70
2023/10/08 07:39:08;;;;;;;12.30;7.85;;;;;;;13.66;100.00;101489.41;4879155;29;20466;-70
2023/10/08 07:42:11;;;;;;;11.85;6.80;;;;;;;13.87;100.00;101482.19;4878977;29;20112;-72
2023/10/08 07:45:17;;;;;;;13.15;6.75;;;;;;;13.67;100.00;101475.31;4879271;29;20087;-69
2023/10/08 07:48:22;;;;;;;9.25;6.65;;;;;;;13.80;100.00;101480.81;4878702;29;20052;-68
2023/10/08 07:51:27;;;;;;;11.55;6.13;;;;;;;13.90;100.00;101492.56;4878703;29;20087;-69
2023/10/08 07:54:34;;;;;;;8.80;4.57;;;;;;;14.08;100.00;101504.78;4878914;29;20087;-71
2023/10/08 07:57:37;;;;;;;10.38;5.38;;;;;;;14.24;100.00;101503.97;4877897;29;20489;-70
2023/10/08 08:00:41;;;;;;;8.48;5.22;;;;;;;14.32;100.00;101496.53;4877760;29;20418;-69
2023/10/08 08:03:45;;;;;;;10.45;5.55;;;;;;;14.34;100.00;101497.31;4878454;29;20121;-76
2023/10/08 08:06:50;;;;;;;7.50;4.60;;;;;;;14.35;100.00;101506.88;4878084;29;20573;-74
2023/10/08 08:10:07;;;;;;;9.15;5.32;;;;;;;14.38;100.00;101499.69;4865972;29;20087;-74
2023/10/08 08:13:11;;;;;;;9.73;6.20;;;;;;;14.47;100.00;101495.72;4878823;29;20064;-74
2023/10/08 08:16:25;;;;;;;8.55;5.90;;;;;;;14.47;100.00;101493.09;4879060;29;20585;-77
2023/10/08 08:19:31;;;;;;;9.10;5.03;;;;;;;14.57;100.00;101491.69;4878279;29;20060;-63
2023/10/08 08:22:40;;;;;;;8.65;5.35;;;;;;;14.68;100.00;101511.31;4877501;29;20083;-68
2023/10/08 08:26:27;;;;;;;7.32;5.55;;;;;;;14.93;100.00;101495.88;4878334;29;20418;-65
2023/10/08 08:29:15;;;;;;;13.30;5.60;;;;;;;15.02;100.00;101498.03;4866801;29;20105;-65
2023/10/08 08:32:21;;;;;;;14.60;5.10;;;;;;;15.25;95.10;101502.03;4866862;29;20068;-65
2023/10/08 08:35:24;;;;;;;13.05;6.78;;;;;;;15.32;92.18;101492.00;4878050;29;20089;-68
2023/10/08 08:38:32;;;;;;;13.20;7.00;;;;;;;15.30;91.84;101502.59;4878357;29;20421;-69
2023/10/08 08:41:38;;;;;;;12.63;5.63;;;;;;;15.40;91.60;101510.84;4878506;29;20116;-69
2023/10/08 08:44:47;;;;;;;11.43;6.13;;;;;;;15.48;90.52;101524.44;4877883;29;20048;-70
2023/10/08 08:47:51;;;;;;;13.40;6.97;;;;;;;15.63;89.83;101521.84;4878316;29;20410;-69
2023/10/08 08:50:55;;;;;;;9.80;5.55;;;;;;;15.67;89.05;101523.41;4877763;29;20486;-69
2023/10/08 08:54:00;;;;;;;9.52;5.03;;;;;;;15.71;88.46;101524.94;4878026;29;20047;-68
2023/10/08 08:57:14;;;;;;;10.68;4.68;;;;;;;15.81;88.00;101537.50;4878271;29;20417;-68
2023/10/08 09:00:19;;;;;;;17.50;7.45;;;;;;;15.74;86.77;101538.78;4878302;29;20112;-69
2023/10/08 09:03:30;;;;;;;12.20;6.78;;;;;;;15.78;87.30;101535.03;4878235;29;20040;-69
2023/10/08 09:06:37;;;;;;;12.23;5.53;;;;;;;15.89;87.09;101539.69;4866886;29;20044;-69
2023/10/08 09:09:41;;;;;;;7.70;4.72;;;;;;;15.92;85.73;101533.38;4878239;29;20092;-69
2023/10/08 09:12:45;;;;;;;11.35;5.28;;;;;;;16.01;85.73;101528.41;4858205;29;20104;-69
2023/10/08 09:15:49;;;;;;;8.60;4.50;;;;;;;16.04;84.24;101530.84;4859187;29;20092;-69
2023/10/08 09:18:52;;;;;;;10.48;5.22;;;;;;;16.16;84.09;101541.63;4859495;29;20107;-69
2023/10/08 09:22:04;;;;;;;15.70;5.88;;;;;;;16.26;83.44;101540.97;4859150;29;20137;-68
2023/10/08 09:25:09;;;;;;;;;;;;;;;16.29;81.97;101539.97;4858635;29;20129;-68
2023/10/08 09:28:15;;;;;;;9.85;5.90;;;;;;;16.45;82.06;101547.81;4859073;29;19927;-68
2023/10/08 09:31:23;;;;;;;11.27;5.47;;;;;;;16.55;81.99;101548.94;4859486;29;20096;-68
2023/10/08 09:34:29;;;;;;;12.70;5.18;;;;;;;16.55;81.53;101533.09;4862246;29;20200;-68
2023/10/08 09:37:34;;;;;;;9.13;4.63;;;;;;;16.62;80.60;101536.19;4862774;29;20048;-69
2023/10/08 09:40:40;;;;;;;11.52;5.60;;;;;;;16.65;80.54;101533.38;4863049;29;20567;-69
2023/10/08 09:43:46;;;;;;;8.23;4.38;;;;;;;16.72;79.83;101532.91;4862859;29;20514;-69
2023/10/08 09:47:04;;;;;;;9.10;4.15;;;;;;;16.82;79.46;101529.75;4863026;29;20084;-69
2023/10/08 09:50:12;;;;;;;9.00;4.68;;;;;;;16.92;79.28;101531.69;4862656;29;20055;-68
2023/10/08 09:53:19;;;;;;;9.07;4.32;;;;;;;16.81;79.03;101534.16;4862395;29;20076;-68
2023/10/08 09:56:24;;;;;;;11.00;4.22;;;;;;;16.83;79.05;101534.91;4861940;29;20087;-68
2023/10/08 09:59:29;;;;;;;10.45;4.72;;;;;;;16.86;79.44;101542.66;4862203;29;20145;-68
2023/10/08 10:02:33;;;;;;;9.40;4.72;;;;;;;16.92;78.70;101536.97;4862205;29;20151;-69
2023/10/08 10:05:37;;;;;;;10.10;4.90;;;;;;;16.94;80.22;101535.09;4862041;29;20067;-69
2023/10/08 10:08:42;;;;;;;13.02;5.53;;;;;;;16.90;79.56;101535.38;4862019;29;20132;-68
2023/10/08 10:11:50;;;;;;;10.43;5.68;;;;;;;16.91;79.50;101530.00;4868376;29;20192;-67
2023/10/08 10:14:55;;;;;;;14.68;6.68;;;;;;;17.07;78.40;101531.66;4880717;29;20543;-68
2023/10/08 10:18:28;;;;;;;10.55;5.57;;;;;;;17.19;77.84;101533.53;4880661;29;20100;-69
2023/10/08 10:21:33;;;;;;;12.80;5.20;;;;;;;17.35;77.47;101534.22;4880877;29;20418;-69
2023/10/08 10:24:42;;;;;;;10.25;4.03;;;;;;;17.48;78.39;101528.16;4879980;29;20092;-69
2023/10/08 10:28:01;;;;;;;8.98;4.30;;;;;;;17.54;77.48;101543.63;4879450;29;20108;-69
2023/10/08 10:31:04;;;;;;;13.65;6.13;;;;;;;17.52;77.38;101548.19;4858359;29;20109;-68
2023/10/08 10:34:10;;;;;;;13.85;4.75;;;;;;;17.55;79.65;101550.59;4880369;29;20044;-69
2023/10/08 10:37:19;;;;;;;10.60;4.38;;;;;;;17.67;78.70;101549.78;4880230;29;20189;-69
2023/10/08 10:40:39;;;;;;;11.55;5.32;;;;;;;17.82;77.10;101553.25;4879831;29;20079;-69
2023/10/08 10:43:52;;;;;;;11.35;5.55;;;;;;;17.98;75.62;101558.38;4880286;29;20048;-69
2023/10/08 10:47:42;;;;;;;13.05;4.80;;;;;;;18.01;75.36;101566.13;4879410;29;20048;-69
2023/10/08 10:50:31;;;;;;;9.18;4.60;;;;;;;18.18;76.81;101564.97;4879031;29;20144;-69
2023/10/08 10:53:44;;;;;;;11.27;5.28;;;;;;;18.33;75.95;101563.94;4879224;29;20064;-69
2023/10/08 10:56:52;;;;;;;10.48;5.72;;;;;;;18.51;75.25;101567.13;4879370;29;20409;-69
2023/10/08 11:00:18;;;;;;;10.63;5.38;;;;;;;18.80;71.50;101568.63;4879877;29;20052;-70
2023/10/08 11:03:24;;;;;;;13.23;5.03;;;;;;;18.91;71.41;101567.00;4880052;29;20512;-70
2023/10/08 11:06:28;;;;;;;12.02;5.22;;;;;;;18.78;70.71;101575.81;4879607;29;20124;-69
2023/10/08 11:09:38;;;;;;;12.98;5.18;;;;;;;18.95;71.16;101565.81;4879552;29;20512;-71
2023/10/08 11:12:46;;;;;;;15.40;5.43;;;;;;;19.08;71.89;101557.84;4878989;29;20152;-68
2023/10/08 11:15:51;;;;;;;15.15;5.60;;;;;;;19.13;73.88;101564.53;4879294;29;20558;-68
2023/10/08 11:18:57;;;;;;;13.70;5.88;;;;;;;19.08;72.84;101555.19;4879145;29;20048;-68
2023/10/08 11:22:00;;;;;;;13.75;5.97;;;;;;;19.10;72.70;101559.44;4879211;29;20051;-67
2023/10/08 11:25:22;;;;;;;8.90;4.80;;;;;;;19.25;72.14;101547.72;4879179;29;20047;-74
2023/10/08 11:28:27;;;;;;;11.55;5.30;;;;;;;19.32;72.06;101547.28;4879396;29;20141;-66
2023/10/08 11:31:34;;;;;;;9.52;4.28;;;;;;;19.51;73.13;101544.97;4879350;29;20101;-66
2023/10/08 11:34:39;;;;;;;11.95;4.88;;;;;;;19.67;72.43;101550.03;4879122;29;20152;-65
2023/10/08 11:37:50;;;;;;;12.35;4.60;;;;;;;19.68;70.95;101555.19;4879371;29;20100;-65
2023/10/08 11:40:57;;;;;;;10.60;5.05;;;;;;;19.70;71.25;101542.69;4879028;29;20113;-66
2023/10/08 11:44:03;;;;;;;8.55;4.45;;;;;;;19.62;70.18;101547.69;4878847;29;20115;-69
2023/10/08 11:47:14;;;;;;;17.55;5.93;;;;;;;19.55;70.10;101541.13;4878685;29;20067;-69
2023/10/08 11:50:19;;;;;;;8.60;4.75;;;;;;;19.55;69.55;101533.16;4878853;29;20593;-68
2023/10/08 11:53:24;;;;;;;13.77;5.45;;;;;;;19.46;69.92;101524.09;4878744;29;20075;-68
2023/10/08 11:56:32;;;;;;;11.50;5.07;;;;;;;19.62;70.34;101520.28;4884732;29;20056;-68
2023/10/08 11:59:39;;;;;;;14.02;6.03;;;;;;;19.54;69.83;101514.72;4877900;29;20086;-69
2023/10/08 12:02:43;;;;;;;8.98;4.75;;;;;;;19.47;73.35;101520.50;4878648;29;20413;-69
2023/10/08 12:05:58;;;;;;;10.35;4.65;;;;;;;19.58;73.72;101521.50;4881196;29;20500;-69
2023/10/08 12:09:11;;;;;;;10.48;5.13;;;;;;;19.65;74.90;101509.47;4878602;29;20417;-69
2023/10/08 12:12:23;;;;;;;9.40;5.20;;;;;;;19.70;74.09;101508.19;4878377;29;20524;-69
2023/10/08 12:15:34;;;;;;;14.10;6.22;;;;;;;19.76;75.28;101509.53;4878324;29;20059;-68
2023/10/08 12:18:43;;;;;;;11.48;5.00;;;;;;;19.80;75.09;101516.28;4866993;29;20059;-69
2023/10/08 12:21:47;;;;;;;12.77;4.97;;;;;;;19.69;73.35;101511.81;4878405;29;20051;-69
2023/10/08 12:24:50;;;;;;;12.32;4.97;;;;;;;19.87;74.89;101514.03;4878176;29;20048;-69
2023/10/08 12:27:53;;;;;;;11.00;5.03;;;;;;;19.92;72.37;101509.22;4878192;29;20566;-68
2023/10/08 12:30:57;;;;;;;14.70;5.18;;;;;;;19.79;72.95;101509.31;4878139;29;20095;-69
2023/10/08 12:34:00;;;;;;;10.38;4.53;;;;;;;19.96;72.16;101506.19;4878342;29;20067;-68
2023/10/08 12:37:03;;;;;;;11.27;5.07;;;;;;;20.17;70.65;101513.50;4878379;29;20076;-69
2023/10/08 12:40:22;;;;;;;10.02;5.07;;;;;;;20.34;69.19;101501.56;4878247;29;20074;-68
2023/10/08 12:43:28;;;;;;;14.23;5.40;;;;;;;20.39;67.62;101499.41;4878466;29;20197;-69
2023/10/08 12:46:33;;;;;;;13.18;5.22;;;;;;;20.29;67.90;101503.72;4878324;29;20097;-69
2023/10/08 12:49:37;;;;;;;8.05;4.55;;;;;;;20.17;68.06;101514.34;4877917;29;20124;-70
2023/10/08 12:52:47;;;;;;;13.25;5.57;;;;;;;20.02;70.38;101504.91;4877938;29;20113;-68
2023/10/08 12:55:53;;;;;;;10.27;4.30;;;;;;;19.88;72.30;101507.78;4877677;29;20055;-69
2023/10/08 12:58:58;;;;;;;13.27;5.57;;;;;;;19.95;73.32;101501.03;4877319;29;20464;-69
2023/10/08 13:02:10;;;;;;;13.50;4.97;;;;;;;20.19;71.13;101501.78;4878167;29;20418;-69
2023/10/08 13:05:44;;;;;;;11.27;5.70;;;;;;;19.92;75.39;101503.91;4877872;29;20677;-68
2023/10/08 13:08:52;;;;;;;12.13;4.82;;;;;;;19.75;76.54;101502.56;4877099;29;20101;-70
2023/10/08 13:11:55;;;;;;;13.70;5.30;;;;;;;19.90;78.74;101500.53;4877178;29;20103;-71
2023/10/08 13:15:01;;;;;;;12.52;5.03;;;;;;;19.82;78.32;101498.47;4877599;29;20092;-69
2023/10/08 13:18:05;;;;;;;13.55;5.50;;;;;;;19.71;77.43;101501.91;4877846;29;20075;-68
2023/10/08 13:21:09;;;;;;;12.02;5.60;;;;;;;19.59;75.55;101494.88;4877436;29;20267;-70
2023/10/08 13:24:12;;;;;;;11.52;5.30;;;;;;;19.48;72.39;101492.16;4877315;29;20225;-70
2023/10/08 13:27:16;;;;;;;12.48;5.75;;;;;;;19.51;76.65;101479.50;4877283;29;20067;-70
2023/10/08 13:30:20;;;;;;;15.13;5.70;;;;;;;19.45;78.16;101489.72;4877378;29;20120;-69
2023/10/08 13:33:24;;;;;;;15.40;5.43;;;;;;;19.18;83.00;101476.72;4877516;29;20048;-70
2023/10/08 13:36:27;;;;;;;14.52;5.90;;;;;;;19.07;83.85;101472.19;4876971;29;20113;-70
2023/10/08 13:39:31;;;;;;;22.00;6.20;;;;;;;19.07;85.59;101477.47;4877381;29;20524;-74
2023/10/08 13:42:34;;;;;;;14.23;4.85;;;;;;;18.93;88.83;101481.16;4877123;29;20611;-71
2023/10/08 13:45:39;;;;;;;10.98;5.57;;;;;;;18.79;86.85;101476.84;4877269;29;20071;-70
2023/10/08 13:48:48;;;;;;;11.40;5.45;;;;;;;18.87;84.93;101475.44;4877104;29;20044;-71
2023/10/08 13:51:59;;;;;;;24.42;8.25;;;;;;;18.96;84.96;101491.53;4877662;29;20117;-65
2023/10/08 13:55:06;;;;;;;14.15;10.32;;;;;;;19.06;83.36;101473.16;4877469;29;20144;-71
2023/10/08 13:58:09;;;;;;;12.88;6.05;;;;;;;19.01;83.54;101481.41;4877196;29;20067;-70
2023/10/08 14:01:19;;;;;;;13.32;6.28;;;;;;;19.02;82.67;101469.03;4879846;29;20188;-71
2023/10/08 14:04:30;;;;;;;12.65;6.43;;;;;;;19.02;82.83;101455.78;4895830;29;20078;-70
2023/10/08 14:07:35;;;;;;;20.40;6.45;;;;;;;19.01;87.30;101444.31;4896146;29;20127;-70
2023/10/08 14:10:37;;;;;;;13.38;5.93;;;;;;;18.94;90.76;101466.09;4895438;29;20052;-70
2023/10/08 14:13:42;;;;;;;13.43;5.75;;;;;;;18.90;91.24;101456.66;4896109;29;20115;-70
2023/10/08 14:16:51;;;;;;;11.02;4.93;;;;;;;18.98;89.91;101455.13;4895661;29;20055;-70
2023/10/08 14:20:06;;;;;;;10.18;5.13;;;;;;;18.99;90.79;101446.25;4896777;29;20119;-70
2023/10/08 14:23:10;;;;;;;16.35;6.03;;;;;;;19.09;88.83;101450.88;4899203;29;20120;-70
2023/10/08 14:26:15;;;;;;;12.27;5.85;;;;;;;19.15;87.59;101445.13;4898763;29;20516;-70
2023/10/08 14:29:20;;;;;;;17.38;5.85;;;;;;;19.15;86.86;101440.66;4899017;29;20071;-70
2023/10/08 14:32:24;;;;;;;14.35;5.68;;;;;;;19.15;86.29;101443.31;4887216;29;20149;-70
2023/10/08 14:45:35;;;;;;;14.30;6.05;;;;;;;19.18;88.17;101431.66;4897960;29;20092;-70
2023/10/08 14:48:40;;;;;;;15.93;6.53;;;;;;;19.15;86.60;101434.53;4898548;29;20107;-70
2023/10/08 14:51:43;;;;;;;14.27;5.43;;;;;;;19.01;87.56;101409.00;4899059;29;20075;-71
2023/10/08 14:54:47;;;;;;;14.68;6.25;;;;;;;19.12;87.07;101382.56;4898813;29;20070;-70
2023/10/08 14:57:53;;;;;;;11.48;5.90;;;;;;;19.10;88.33;101432.19;4898468;29;20573;-71
2023/10/08 15:00:57;;;;;;;17.58;7.00;;;;;;;19.20;88.59;101404.03;4898356;29;20047;-71